Time;durP1;ratioP1;P1;durP2;ratioP2;P2;SDS_P1;SDS_P2;PMS_P1;PMS_P2;Temp;Humidity;BMP_temperature;BMP_pressure;BME280_temperature;BME280_humidity;BME280_pressure;Samples;Min_cycle;Max_cycle;Signal;HPM_P1;HPM_P2
2021/11/21 01:00:26;;;;;;;16.38;10.93;;;8.80;94.10;;;;;;2088612;28;20140;-93
2021/11/21 01:30:32;;;;;;;16.65;10.95;;;8.80;94.00;;;;;;2094822;28;20052;-93
2021/11/21 01:32:26;;;;;;;15.80;10.70;;;8.80;94.10;;;;;;2094324;28;20067;-93
2021/11/21 01:34:15;;;;;;;16.67;11.35;;;8.80;94.10;;;;;;2093430;28;20057;-93
2021/11/21 01:36:15;;;;;;;17.38;11.48;;;8.80;94.10;;;;;;2087971;28;20546;-93
2021/11/21 01:38:13;;;;;;;17.02;11.18;;;8.80;94.10;;;;;;2088584;28;20474;-93
2021/11/21 01:39:44;;;;;;;17.20;11.43;;;8.80;94.20;;;;;;2087042;28;20060;-93
2021/11/21 01:41:02;;;;;;;17.58;11.88;;;8.80;94.20;;;;;;2094513;28;20482;-93
2021/11/21 01:45:33;;;;;;;16.83;11.52;;;8.80;94.20;;;;;;2091155;28;20155;-93
2021/11/21 01:56:26;;;;;;;17.17;11.40;;;8.80;94.30;;;;;;2091169;28;20040;-93
2021/11/21 01:58:33;;;;;;;18.35;12.00;;;8.80;94.30;;;;;;2096514;28;20029;-92
2021/11/21 02:00:17;;;;;;;18.73;12.23;;;8.80;94.30;;;;;;2096705;28;20040;-92
2021/11/21 02:01:50;;;;;;;17.35;11.77;;;8.80;94.30;;;;;;2097345;28;20033;-93
2021/11/21 02:03:12;;;;;;;19.08;12.45;;;8.80;94.30;;;;;;2097493;28;20072;-92
2021/11/21 02:04:44;;;;;;;;;;;8.80;94.30;;;;;;2089573;28;20135;-94
2021/11/21 02:09:17;;;;;;;17.40;11.85;;;8.80;94.30;;;;;;2091669;28;20041;-93
2021/11/21 02:10:44;;;;;;;17.05;12.02;;;8.80;94.30;;;;;;2090658;28;20040;-94
2021/11/21 02:12:46;;;;;;;18.60;12.25;;;8.80;94.30;;;;;;2087839;28;20045;-92
2021/11/21 02:14:11;;;;;;;19.48;12.27;;;8.90;94.30;;;;;;2091215;28;20450;-93
2021/11/21 02:17:57;;;;;;;17.08;11.73;;;8.80;94.30;;;;;;2088021;28;20148;-93
2021/11/21 02:19:48;;;;;;;;;;;8.80;94.30;;;;;;2094057;28;20025;-94
2021/11/21 02:21:59;;;;;;;19.13;12.50;;;8.80;94.30;;;;;;2093071;28;20031;-94
2021/11/21 02:23:06;;;;;;;17.40;11.60;;;8.80;94.30;;;;;;2091102;28;20044;-93
2021/11/21 02:25:00;;;;;;;19.15;11.98;;;8.80;94.30;;;;;;2090315;28;20095;-95
2021/11/21 02:26:28;;;;;;;19.30;12.70;;;8.80;94.30;;;;;;2091908;28;20040;-94
2021/11/21 02:28:04;;;;;;;19.17;12.48;;;8.90;94.30;;;;;;2094163;28;20090;-93
2021/11/21 02:29:39;;;;;;;19.23;13.15;;;8.80;94.30;;;;;;2074049;28;20232;-93
2021/11/21 02:31:11;;;;;;;18.55;12.38;;;8.80;94.30;;;;;;2090979;28;20063;-92
2021/11/21 02:32:39;;;;;;;19.20;13.02;;;8.90;94.60;;;;;;2090847;28;20182;-93
2021/11/21 02:34:21;;;;;;;18.65;12.98;;;8.90;94.40;;;;;;2089918;28;20041;-93
2021/11/21 02:36:43;;;;;;;20.67;13.98;;;8.90;94.40;;;;;;2090798;28;20080;-92
2021/11/21 02:38:25;;;;;;;20.13;12.68;;;8.90;94.40;;;;;;2090384;28;20044;-92
2021/11/21 02:40:16;;;;;;;19.38;13.02;;;8.90;94.30;;;;;;2080279;28;20230;-95
2021/11/21 02:43:53;;;;;;;19.80;12.68;;;9.00;94.40;;;;;;2087927;28;20391;-94
2021/11/21 02:46:40;;;;;;;20.05;13.30;;;9.00;94.30;;;;;;2096244;28;20048;-94
2021/11/21 02:48:09;;;;;;;20.45;13.20;;;9.00;94.40;;;;;;2090644;28;20459;-93
2021/11/21 02:52:17;;;;;;;21.75;13.38;;;8.90;94.30;;;;;;2091260;28;20037;-94
2021/11/21 02:56:56;;;;;;;21.60;13.80;;;8.90;94.30;;;;;;2091629;28;20159;-96
2021/11/21 02:58:33;;;;;;;21.52;13.65;;;8.90;94.30;;;;;;2076912;28;20045;-94
2021/11/21 02:59:51;;;;;;;21.92;13.98;;;8.90;94.30;;;;;;2066042;28;20106;-95
2021/11/21 03:01:25;;;;;;;24.80;14.82;;;8.90;94.30;;;;;;2076858;28;20113;-94
2021/11/21 03:03:01;;;;;;;21.45;14.68;;;8.90;94.30;;;;;;2081771;28;20041;-94
2021/11/21 03:04:08;;;;;;;23.55;15.07;;;8.90;94.30;;;;;;2082487;28;20100;-94
2021/11/21 03:05:37;;;;;;;24.33;14.73;;;8.90;94.40;;;;;;2074856;28;20130;-95
2021/11/21 03:07:27;;;;;;;24.77;15.77;;;8.90;94.40;;;;;;2080982;28;20072;-93
2021/11/21 03:09:14;;;;;;;26.73;16.73;;;8.90;94.40;;;;;;2087538;28;20133;-95
2021/11/21 03:11:03;;;;;;;24.17;15.40;;;8.90;94.40;;;;;;2082894;28;20132;-94
2021/11/21 03:12:51;;;;;;;25.48;15.30;;;8.90;94.40;;;;;;2082160;28;20037;-94
2021/11/21 03:15:02;;;;;;;25.58;15.57;;;8.90;94.40;;;;;;2080630;28;20061;-94
2021/11/21 03:16:46;;;;;;;23.58;14.60;;;8.90;94.40;;;;;;2064583;28;20055;-94
2021/11/21 03:20:34;;;;;;;24.58;15.30;;;8.90;94.40;;;;;;2089878;28;20107;-93
2021/11/21 03:22:49;;;;;;;24.58;14.82;;;8.90;94.50;;;;;;2092525;28;20566;-93
2021/11/21 03:24:58;;;;;;;23.13;13.82;;;8.90;94.50;;;;;;2095082;28;20034;-95
2021/11/21 03:26:45;;;;;;;23.08;13.63;;;8.90;94.40;;;;;;2081342;28;20036;-93
2021/11/21 03:27:46;;;;;;;23.50;15.20;;;8.90;94.40;;;;;;2073808;28;20539;-93
2021/11/21 03:28:47;;;;;;;25.20;14.40;;;8.90;94.40;;;;;;2069960;28;20035;-93
2021/11/21 03:29:47;;;;;;;25.77;16.13;;;8.90;94.40;;;;;;2065093;28;20046;-93
2021/11/21 03:30:48;;;;;;;27.10;16.30;;;8.90;94.50;;;;;;2058109;28;20034;-93
2021/11/21 03:31:50;;;;;;;25.83;16.33;;;8.90;94.50;;;;;;2055648;28;20039;-92
2021/11/21 03:33:00;;;;;;;26.60;16.98;;;8.90;94.50;;;;;;2065525;28;20054;-93
2021/11/21 03:34:38;;;;;;;26.50;16.40;;;8.90;94.80;;;;;;2084697;28;20049;-93
2021/11/21 03:35:45;;;;;;;25.85;16.65;;;8.80;94.60;;;;;;2071753;28;20479;-93
2021/11/21 03:36:51;;;;;;;28.25;16.48;;;8.90;94.60;;;;;;2060129;28;20038;-94
2021/11/21 03:38:31;;;;;;;25.52;16.02;;;8.90;94.60;;;;;;2066145;28;20034;-94
2021/11/21 03:39:42;;;;;;;26.15;15.90;;;8.90;94.60;;;;;;2069138;28;20069;-93
2021/11/21 03:42:06;;;;;;;23.80;15.30;;;8.90;94.60;;;;;;2095267;28;20040;-93
2021/11/21 03:43:08;;;;;;;24.15;14.57;;;8.90;94.60;;;;;;2085788;28;20463;-93
2021/11/21 03:44:16;;;;;;;25.92;15.35;;;8.90;94.60;;;;;;2088109;28;20164;-93
2021/11/21 03:45:41;;;;;;;25.65;15.70;;;8.90;94.60;;;;;;2080793;28;20115;-92
2021/11/21 03:47:11;;;;;;;24.67;14.73;;;8.90;94.60;;;;;;2074271;28;20030;-92
2021/11/21 03:48:33;;;;;;;23.50;14.32;;;8.90;94.60;;;;;;2077305;28;20064;-93
2021/11/21 03:52:01;;;;;;;23.23;14.30;;;8.90;94.60;;;;;;2095661;28;20039;-93
2021/11/21 03:55:27;;;;;;;24.30;14.85;;;8.90;94.50;;;;;;2076619;28;20474;-93
2021/11/21 03:56:58;;;;;;;23.50;14.40;;;8.90;94.50;;;;;;2090796;28;20065;-94
2021/11/21 03:59:29;;;;;;;23.55;14.48;;;8.90;94.50;;;;;;2094487;28;20053;-93
2021/11/21 04:01:24;;;;;;;25.80;14.75;;;8.90;94.60;;;;;;2088333;28;20068;-92
2021/11/21 04:03:07;;;;;;;24.58;14.88;;;8.90;94.60;;;;;;2088807;28;20564;-92
2021/11/21 04:04:31;;;;;;;23.17;14.10;;;8.90;94.60;;;;;;2089991;28;20037;-93
2021/11/21 04:05:34;;;;;;;24.15;14.82;;;8.90;94.60;;;;;;2077355;28;20487;-93
2021/11/21 04:06:55;;;;;;;24.15;15.27;;;8.90;94.60;;;;;;2066046;28;20385;-93
2021/11/21 04:08:48;;;;;;;23.48;14.25;;;8.90;94.60;;;;;;2089056;28;20052;-92
2021/11/21 04:12:45;;;;;;;24.10;14.52;;;8.90;94.60;;;;;;2098162;28;20047;-93
2021/11/21 04:14:24;;;;;;;24.33;13.90;;;8.90;94.60;;;;;;2097856;28;20439;-93
2021/11/21 04:25:20;;;;;;;22.50;13.73;;;8.90;94.60;;;;;;2091507;28;20434;-92
2021/11/21 04:27:30;;;;;;;21.07;12.27;;;8.90;94.60;;;;;;2088768;28;20064;-92
2021/11/21 04:28:55;;;;;;;21.20;12.48;;;8.90;94.60;;;;;;2091521;28;20311;-92
2021/11/21 04:29:56;;;;;;;23.80;13.65;;;8.90;94.60;;;;;;2082691;28;20038;-93
2021/11/21 04:31:02;;;;;;;23.77;14.02;;;8.90;94.60;;;;;;2066422;28;20042;-93
2021/11/21 04:32:18;;;;;;;20.15;13.02;;;8.90;94.60;;;;;;2076336;28;20404;-92
2021/11/21 04:33:23;;;;;;;22.30;14.05;;;8.90;94.70;;;;;;2083063;28;20515;-93
2021/11/21 04:35:07;;;;;;;23.52;13.60;;;8.90;94.70;;;;;;2082328;28;20044;-92
2021/11/21 04:36:25;;;;;;;22.45;13.43;;;8.90;94.70;;;;;;2080375;28;20041;-92
2021/11/21 04:37:48;;;;;;;23.55;14.15;;;8.90;94.70;;;;;;2082511;28;20076;-91
2021/11/21 04:38:57;;;;;;;23.77;14.63;;;8.90;94.70;;;;;;2056891;28;20034;-92
2021/11/21 04:40:27;;;;;;;22.27;13.45;;;8.90;94.70;;;;;;2067505;28;20042;-93
2021/11/21 04:41:57;;;;;;;22.08;14.05;;;8.90;94.70;;;;;;2089780;28;20037;-93
2021/11/21 04:43:18;;;;;;;23.45;14.30;;;8.90;94.70;;;;;;2074138;28;20042;-93
2021/11/21 04:45:11;;;;;;;22.13;13.35;;;8.90;94.70;;;;;;2078279;28;20061;-92
2021/11/21 04:46:44;;;;;;;22.75;13.50;;;8.90;94.80;;;;;;2090729;28;20041;-92
2021/11/21 04:48:40;;;;;;;21.73;12.98;;;9.00;94.80;;;;;;2082511;28;20041;-91
2021/11/21 04:49:48;;;;;;;20.33;12.23;;;9.00;94.70;;;;;;2068942;28;20037;-92
2021/11/21 04:50:56;;;;;;;21.50;12.50;;;8.90;94.70;;;;;;2084992;28;20116;-93
2021/11/21 04:52:38;;;;;;;19.30;11.95;;;8.90;94.70;;;;;;2082278;28;20041;-92
2021/11/21 04:53:48;;;;;;;19.05;11.50;;;9.00;95.00;;;;;;2092388;28;20143;-92
2021/11/21 04:55:15;;;;;;;19.65;11.23;;;9.00;94.80;;;;;;2096594;28;20570;-92
2021/11/21 04:56:42;;;;;;;19.17;11.18;;;9.00;94.80;;;;;;2093572;28;20029;-92
2021/11/21 04:57:54;;;;;;;20.17;12.07;;;9.00;94.80;;;;;;2094670;28;20032;-91
2021/11/21 04:59:05;;;;;;;17.92;10.63;;;9.00;94.80;;;;;;2084016;28;20041;-92
2021/11/21 05:01:19;;;;;;;18.77;11.35;;;9.00;94.80;;;;;;2079346;28;20138;-91
2021/11/21 05:02:59;;;;;;;18.98;11.35;;;9.00;94.80;;;;;;2097607;28;20067;-92
2021/11/21 05:04:51;;;;;;;16.42;10.23;;;9.00;94.80;;;;;;2086689;28;20485;-92
2021/11/21 05:06:22;;;;;;;17.27;10.63;;;9.00;94.70;;;;;;2106730;28;20040;-92
2021/11/21 05:07:49;;;;;;;17.15;10.88;;;9.00;94.70;;;;;;2092882;28;20056;-92
2021/11/21 05:10:32;;;;;;;17.80;11.07;;;9.00;94.80;;;;;;2077370;28;20045;-92
2021/11/21 05:11:42;;;;;;;16.80;10.32;;;9.00;94.80;;;;;;2082912;28;20124;-92
2021/11/21 05:12:47;;;;;;;16.17;10.35;;;9.00;94.80;;;;;;2083953;28;20071;-92
2021/11/21 05:14:04;;;;;;;15.48;10.00;;;9.00;94.80;;;;;;2075723;28;20065;-94
2021/11/21 05:15:53;;;;;;;14.77;9.23;;;9.00;94.80;;;;;;2082440;28;20037;-93
2021/11/21 05:17:53;;;;;;;14.13;8.73;;;9.10;94.90;;;;;;2090278;28;20127;-92
2021/11/21 05:19:18;;;;;;;13.88;8.43;;;9.00;94.80;;;;;;2082415;28;20029;-92
2021/11/21 05:21:38;;;;;;;13.13;8.13;;;9.10;94.80;;;;;;2089070;28;20037;-93
2021/11/21 05:23:09;;;;;;;12.32;7.13;;;9.10;94.80;;;;;;2090987;28;20518;-93
2021/11/21 05:24:57;;;;;;;13.05;7.93;;;9.10;94.80;;;;;;2090343;28;20055;-93
2021/11/21 05:27:36;;;;;;;13.27;7.65;;;9.10;94.80;;;;;;2078202;28;20095;-93
2021/11/21 05:28:40;;;;;;;12.20;7.47;;;9.10;94.90;;;;;;2075689;28;20030;-92
2021/11/21 05:30:08;;;;;;;11.55;7.45;;;9.00;94.80;;;;;;2058112;28;20065;-91
2021/11/21 05:31:21;;;;;;;11.52;6.90;;;9.10;94.90;;;;;;2060310;28;20046;-91
2021/11/21 05:32:38;;;;;;;11.60;7.22;;;9.10;94.90;;;;;;2068146;28;20038;-92
2021/11/21 05:34:01;;;;;;;11.57;7.15;;;9.10;94.90;;;;;;2062629;28;20577;-92
2021/11/21 05:35:33;;;;;;;12.65;7.22;;;9.10;94.90;;;;;;2069605;28;20053;-93
2021/11/21 05:37:10;;;;;;;12.02;6.75;;;9.10;94.90;;;;;;2069593;28;20038;-93
2021/11/21 05:38:25;;;;;;;11.38;6.90;;;9.10;94.90;;;;;;2044584;28;20048;-92
2021/11/21 05:39:37;;;;;;;11.10;6.55;;;9.10;94.90;;;;;;2066540;28;20046;-92
2021/11/21 05:40:42;;;;;;;10.60;6.50;;;9.10;94.90;;;;;;2066633;28;20113;-92
2021/11/21 05:41:43;;;;;;;11.38;7.13;;;9.20;94.90;;;;;;2048703;28;20088;-92
2021/11/21 05:43:06;;;;;;;11.10;7.07;;;9.10;94.90;;;;;;2051893;28;20035;-92
2021/11/21 05:44:11;;;;;;;10.82;6.35;;;9.10;95.00;;;;;;2068689;28;20053;-92
2021/11/21 05:45:37;;;;;;;11.43;7.07;;;9.20;95.20;;;;;;2065798;28;20049;-92
2021/11/21 05:47:06;;;;;;;;;;;9.20;95.00;;;;;;2076749;28;20174;-92
2021/11/21 05:48:34;;;;;;;10.20;6.13;;;9.20;95.00;;;;;;2080284;28;19921;-92
2021/11/21 05:49:50;;;;;;;10.23;5.97;;;9.20;94.90;;;;;;2056565;28;20050;-92
2021/11/21 05:50:54;;;;;;;9.13;5.75;;;9.20;94.90;;;;;;2063741;28;20410;-92
2021/11/21 05:51:57;;;;;;;10.60;6.10;;;9.20;94.90;;;;;;2070479;28;20049;-92
2021/11/21 05:53:01;;;;;;;9.50;5.88;;;9.20;95.00;;;;;;2071529;28;20405;-92
2021/11/21 05:56:06;;;;;;;9.60;6.13;;;9.20;95.00;;;;;;2112237;28;20062;-92
2021/11/21 05:57:14;;;;;;;9.32;6.03;;;9.20;95.00;;;;;;2086452;28;20072;-91
2021/11/21 05:58:25;;;;;;;9.73;5.95;;;9.20;95.00;;;;;;2085152;28;20033;-92
2021/11/21 05:59:35;;;;;;;9.60;6.13;;;9.20;95.00;;;;;;2085778;28;20132;-91
2021/11/21 06:00:54;;;;;;;9.68;5.97;;;9.20;95.00;;;;;;2093523;28;20040;-91
2021/11/21 06:02:09;;;;;;;8.35;5.20;;;9.20;95.00;;;;;;2103784;28;20032;-92
2021/11/21 06:03:20;;;;;;;9.52;5.72;;;9.20;95.00;;;;;;2093526;28;20037;-91
2021/11/21 06:04:28;;;;;;;9.05;5.88;;;9.20;95.00;;;;;;2088473;28;20033;-91
2021/11/21 06:05:34;;;;;;;9.10;5.55;;;9.20;95.00;;;;;;2087177;28;20033;-91
2021/11/21 06:06:48;;;;;;;8.90;5.47;;;9.20;95.00;;;;;;2098243;28;20060;-92
2021/11/21 06:07:58;;;;;;;8.15;5.13;;;9.20;95.30;;;;;;2105621;28;20111;-92
2021/11/21 06:09:12;;;;;;;9.90;5.93;;;9.20;95.00;;;;;;2095769;28;20021;-91
2021/11/21 06:10:35;;;;;;;8.40;4.82;;;9.20;95.10;;;;;;2087294;28;20407;-93
2021/11/21 06:11:41;;;;;;;8.45;5.22;;;9.20;95.10;;;;;;2094172;28;20040;-93
2021/11/21 06:12:49;;;;;;;8.95;5.35;;;9.20;95.10;;;;;;2082495;28;20038;-93
2021/11/21 06:14:07;;;;;;;8.82;5.32;;;9.20;95.10;;;;;;2082933;28;20485;-93
2021/11/21 06:15:10;;;;;;;7.65;4.55;;;9.20;95.10;;;;;;2072361;28;20052;-93
2021/11/21 06:16:13;;;;;;;9.23;5.45;;;9.20;95.10;;;;;;2099202;28;20483;-92
2021/11/21 06:17:24;;;;;;;8.40;5.20;;;9.20;95.10;;;;;;2097437;28;20041;-93
2021/11/21 06:18:50;;;;;;;8.48;5.07;;;9.20;95.10;;;;;;2090419;28;20029;-92
2021/11/21 06:19:53;;;;;;;7.97;4.65;;;9.20;95.10;;;;;;2103271;28;20085;-93
2021/11/21 06:21:42;;;;;;;8.35;5.00;;;9.20;95.10;;;;;;2108414;28;20525;-93
2021/11/21 06:23:17;;;;;;;7.93;4.78;;;9.20;95.10;;;;;;2105519;28;20054;-93
2021/11/21 06:24:32;;;;;;;8.23;4.80;;;9.20;95.10;;;;;;2111282;28;20032;-94
2021/11/21 06:27:05;;;;;;;8.05;4.75;;;9.20;95.10;;;;;;2094874;28;20045;-93
2021/11/21 06:28:37;;;;;;;8.98;4.55;;;9.20;95.10;;;;;;2078525;28;20045;-93
2021/11/21 06:32:16;;;;;;;7.15;4.40;;;9.20;95.10;;;;;;2090548;28;20040;-93
2021/11/21 06:33:43;;;;;;;7.10;4.18;;;9.20;95.10;;;;;;2084538;28;20052;-93
2021/11/21 06:35:00;;;;;;;7.97;4.97;;;9.20;95.10;;;;;;2069335;28;20041;-93
2021/11/21 06:36:23;;;;;;;6.90;4.00;;;9.20;95.10;;;;;;2077675;28;20131;-94
2021/11/21 06:37:32;;;;;;;7.65;4.50;;;9.20;95.10;;;;;;2084367;28;20394;-93
2021/11/21 06:38:36;;;;;;;8.23;4.80;;;9.20;95.10;;;;;;2081989;28;20040;-93
2021/11/21 06:39:42;;;;;;;8.45;4.70;;;9.20;95.10;;;;;;2073654;28;20125;-92
2021/11/21 06:41:01;;;;;;;7.53;4.90;;;9.20;95.10;;;;;;2075591;28;20041;-93
2021/11/21 06:42:06;;;;;;;7.43;4.50;;;9.20;95.10;;;;;;2065728;28;20043;-92
2021/11/21 06:43:20;;;;;;;7.15;4.43;;;9.20;95.20;;;;;;2058584;28;20412;-93
2021/11/21 06:44:27;;;;;;;7.55;4.53;;;9.20;95.20;;;;;;2064268;28;20392;-93
2021/11/21 06:46:04;;;;;;;7.03;4.28;;;9.20;95.20;;;;;;2066903;28;20053;-93
2021/11/21 06:47:18;;;;;;;7.40;4.68;;;9.20;95.10;;;;;;2083669;28;20029;-93
2021/11/21 06:48:26;;;;;;;7.55;4.50;;;9.20;95.20;;;;;;2075124;28;20061;-93
2021/11/21 06:49:44;;;;;;;7.05;4.38;;;9.20;95.10;;;;;;2069140;28;20081;-92
2021/11/21 06:50:58;;;;;;;6.88;4.40;;;9.20;95.20;;;;;;2074434;28;20038;-93
2021/11/21 06:52:33;;;;;;;7.40;4.50;;;9.20;95.20;;;;;;2065927;28;20029;-93
2021/11/21 06:53:48;;;;;;;7.30;4.53;;;9.20;95.20;;;;;;2072622;28;20048;-93
2021/11/21 06:55:09;;;;;;;6.40;4.10;;;9.20;95.20;;;;;;2071157;28;20030;-92
2021/11/21 06:56:11;;;;;;;8.35;4.82;;;9.20;95.20;;;;;;2092446;28;20386;-93
2021/11/21 06:57:15;;;;;;;7.50;4.35;;;9.20;95.20;;;;;;2096983;28;20037;-93
2021/11/21 06:58:34;;;;;;;7.43;4.40;;;9.20;95.20;;;;;;2086129;28;20052;-92
2021/11/21 06:59:43;;;;;;;7.35;4.38;;;9.20;95.20;;;;;;2082948;28;20068;-93
2021/11/21 07:01:16;;;;;;;8.02;4.82;;;9.20;95.20;;;;;;2076169;28;20041;-93
2021/11/21 07:02:28;;;;;;;7.63;4.43;;;9.20;95.20;;;;;;2084739;28;20037;-93
2021/11/21 07:03:35;;;;;;;8.15;4.63;;;9.20;95.20;;;;;;2081128;28;20029;-94
2021/11/21 07:04:57;;;;;;;7.10;4.38;;;9.20;95.20;;;;;;2064161;28;20038;-93
2021/11/21 07:06:13;;;;;;;8.65;4.80;;;9.20;95.20;;;;;;2083051;28;20070;-93
2021/11/21 07:07:17;;;;;;;8.18;4.80;;;9.20;95.20;;;;;;2081679;28;20042;-93
2021/11/21 07:08:42;;;;;;;8.25;4.82;;;9.20;95.20;;;;;;2081840;28;20037;-92
2021/11/21 07:10:21;;;;;;;8.27;4.80;;;9.20;95.20;;;;;;2074952;28;20060;-91
2021/11/21 07:11:38;;;;;;;7.75;4.32;;;9.20;95.20;;;;;;2071244;28;20108;-93
2021/11/21 07:13:33;;;;;;;7.68;4.20;;;9.20;95.20;;;;;;2083817;28;20037;-93
2021/11/21 07:15:14;;;;;;;6.85;4.13;;;9.20;95.20;;;;;;2076890;28;20132;-93
2021/11/21 07:16:56;;;;;;;6.80;4.25;;;9.10;95.10;;;;;;2084678;28;20040;-93
2021/11/21 07:18:06;;;;;;;6.90;4.20;;;9.10;95.10;;;;;;2061575;28;20046;-94
2021/11/21 07:22:17;;;;;;;7.88;5.18;;;9.20;95.20;;;;;;2094861;28;20059;-92
2021/11/21 07:23:20;;;;;;;7.97;4.80;;;9.20;95.20;;;;;;2082364;28;20083;-91
2021/11/21 07:24:37;;;;;;;7.95;4.90;;;9.20;95.20;;;;;;2073640;28;20144;-91
2021/11/21 07:25:40;;;;;;;7.50;4.55;;;9.20;95.20;;;;;;2060110;28;20043;-91
2021/11/21 07:26:56;;;;;;;7.63;4.55;;;9.20;95.20;;;;;;2059047;28;20493;-90
2021/11/21 07:27:56;;;;;;;7.90;4.88;;;9.20;95.20;;;;;;2058008;28;20059;-92
2021/11/21 07:29:08;;;;;;;7.65;4.82;;;9.20;95.20;;;;;;2057262;28;20035;-93
2021/11/21 07:30:21;;;;;;;7.88;4.60;;;9.20;95.20;;;;;;2063082;28;20636;-93
2021/11/21 07:31:42;;;;;;;6.93;4.55;;;9.20;95.50;;;;;;2074303;28;20043;-94
2021/11/21 07:33:05;;;;;;;7.90;4.75;;;9.10;95.20;;;;;;2072543;28;20033;-93
2021/11/21 07:34:09;;;;;;;6.82;4.18;;;9.10;95.20;;;;;;2085440;28;20033;-92
2021/11/21 07:35:11;;;;;;;6.22;3.83;;;9.20;95.20;;;;;;2066261;28;20039;-93
2021/11/21 07:36:12;;;;;;;8.45;4.55;;;9.20;95.20;;;;;;2064268;28;20437;-92
2021/11/21 07:37:12;;;;;;;8.68;4.40;;;9.20;95.20;;;;;;2057417;28;20047;-92
2021/11/21 07:38:13;;;;;;;7.45;4.70;;;9.20;95.20;;;;;;2052236;28;20039;-91
2021/11/21 07:39:14;;;;;;;7.10;4.47;;;9.20;95.20;;;;;;2059035;28;20176;-92
2021/11/21 07:40:16;;;;;;;7.00;4.07;;;9.20;95.20;;;;;;2058337;28;20039;-91
2021/11/21 07:41:18;;;;;;;8.02;4.40;;;9.10;95.20;;;;;;2068606;28;20109;-92
2021/11/21 07:42:19;;;;;;;8.07;4.30;;;9.20;95.20;;;;;;2068002;28;20054;-93
2021/11/21 07:43:23;;;;;;;7.18;3.90;;;9.20;95.20;;;;;;2066145;28;20481;-94
2021/11/21 07:44:24;;;;;;;7.53;3.72;;;9.20;95.20;;;;;;2067927;28;20034;-92
2021/11/21 07:45:25;;;;;;;6.50;3.78;;;9.20;95.20;;;;;;2060500;28;20046;-92
2021/11/21 07:46:26;;;;;;;6.68;3.58;;;9.20;95.20;;;;;;2051087;28;20031;-91
2021/11/21 07:47:27;;;;;;;7.45;3.67;;;9.20;95.20;;;;;;2054631;28;20051;-94
2021/11/21 07:48:29;;;;;;;7.25;3.60;;;9.20;95.20;;;;;;2066368;28;20038;-94
2021/11/21 07:49:29;;;;;;;5.07;3.10;;;9.20;95.20;;;;;;2067135;28;20121;-94
2021/11/21 07:50:30;;;;;;;6.20;3.42;;;9.20;95.20;;;;;;2075561;28;20030;-93
2021/11/21 07:51:31;;;;;;;5.32;3.25;;;9.20;95.20;;;;;;2083514;28;20033;-94
2021/11/21 07:52:32;;;;;;;6.88;2.97;;;9.20;95.20;;;;;;2082536;28;20033;-90
2021/11/21 07:53:33;;;;;;;5.68;3.05;;;9.20;95.20;;;;;;2059016;28;20090;-91
2021/11/21 07:54:34;;;;;;;5.13;2.63;;;9.20;95.20;;;;;;2059299;28;20073;-92
2021/11/21 07:55:35;;;;;;;4.88;2.42;;;9.20;95.20;;;;;;2066870;28;20041;-92
2021/11/21 07:56:36;;;;;;;5.28;2.90;;;9.20;95.20;;;;;;2074325;28;20062;-92
2021/11/21 07:57:37;;;;;;;5.55;2.80;;;9.30;95.20;;;;;;2060273;28;20046;-92
2021/11/21 07:58:37;;;;;;;5.00;2.55;;;9.20;95.20;;;;;;2070277;28;20046;-92
2021/11/21 07:59:38;;;;;;;5.65;2.38;;;9.20;95.20;;;;;;2059243;28;20035;-92
2021/11/21 08:00:39;;;;;;;4.68;2.20;;;9.20;95.20;;;;;;2066835;28;20313;-92
2021/11/21 08:01:40;;;;;;;5.30;2.53;;;9.30;95.20;;;;;;2060597;28;20035;-92
2021/11/21 08:02:42;;;;;;;5.40;2.40;;;9.30;95.20;;;;;;2070281;28;20026;-91
2021/11/21 08:03:43;;;;;;;4.95;2.40;;;9.30;95.20;;;;;;2070254;28;20050;-91
2021/11/21 08:04:44;;;;;;;4.15;2.00;;;9.30;95.10;;;;;;2077245;28;20041;-93
2021/11/21 08:05:45;;;;;;;4.57;2.10;;;9.30;95.10;;;;;;2073219;28;20053;-92
2021/11/21 08:06:46;;;;;;;4.53;2.05;;;9.30;95.10;;;;;;2074899;28;20026;-92
2021/11/21 08:07:46;;;;;;;4.95;2.40;;;9.30;95.40;;;;;;2070703;28;20081;-92
2021/11/21 08:08:47;;;;;;;3.13;1.80;;;9.30;95.10;;;;;;2060596;28;20074;-92
2021/11/21 08:09:48;;;;;;;4.40;1.92;;;9.40;95.20;;;;;;2068256;28;20046;-92
2021/11/21 08:10:49;;;;;;;4.10;1.75;;;9.30;95.10;;;;;;2070401;28;20120;-91
2021/11/21 08:11:50;;;;;;;6.10;2.10;;;9.40;95.10;;;;;;2076448;28;20038;-92
2021/11/21 08:12:51;;;;;;;4.25;2.00;;;9.30;95.10;;;;;;2082627;28;20061;-92
2021/11/21 08:13:52;;;;;;;3.08;1.60;;;9.30;95.10;;;;;;2066160;28;20062;-92
2021/11/21 08:14:54;;;;;;;3.80;1.80;;;9.40;95.10;;;;;;2056634;28;20066;-92
2021/11/21 08:15:55;;;;;;;3.65;1.90;;;9.40;95.10;;;;;;2076276;28;20054;-92
2021/11/21 08:16:56;;;;;;;3.90;1.92;;;9.40;95.10;;;;;;2067791;28;20042;-92
2021/11/21 08:17:57;;;;;;;4.03;1.60;;;9.40;95.10;;;;;;2061719;28;20130;-92
2021/11/21 08:18:57;;;;;;;4.28;2.03;;;9.40;95.10;;;;;;2066165;28;20388;-92
2021/11/21 08:19:58;;;;;;;3.53;1.50;;;9.40;95.10;;;;;;2068104;28;20022;-92
2021/11/21 08:20:59;;;;;;;4.28;1.95;;;9.40;95.10;;;;;;2051704;28;20043;-92
2021/11/21 08:22:00;;;;;;;3.97;1.40;;;9.40;95.10;;;;;;2057797;28;20057;-92
2021/11/21 08:23:01;;;;;;;5.85;1.85;;;9.40;95.00;;;;;;2060509;28;20066;-92
2021/11/21 08:24:01;;;;;;;4.38;1.67;;;9.40;95.00;;;;;;2056136;28;20046;-92
2021/11/21 08:25:03;;;;;;;4.85;1.67;;;9.40;95.00;;;;;;2060791;28;20027;-92
2021/11/21 08:26:05;;;;;;;4.18;1.50;;;9.40;95.00;;;;;;2051595;28;20043;-92
2021/11/21 08:27:06;;;;;;;3.35;1.38;;;9.40;95.00;;;;;;2063556;28;20176;-92
2021/11/21 08:28:07;;;;;;;5.07;1.60;;;9.40;95.00;;;;;;2058792;28;20252;-93
2021/11/21 08:29:07;;;;;;;3.10;1.17;;;9.40;95.00;;;;;;2063393;28;20043;-92
2021/11/21 08:30:09;;;;;;;3.05;1.15;;;9.40;95.00;;;;;;2055272;28;20035;-92
2021/11/21 08:31:10;;;;;;;3.13;1.40;;;9.40;95.00;;;;;;2053765;28;20035;-92
2021/11/21 08:32:14;;;;;;;4.10;1.25;;;9.40;95.00;;;;;;2064794;28;20053;-92
2021/11/21 08:33:15;;;;;;;2.83;1.10;;;9.40;95.00;;;;;;2066382;28;20098;-92
2021/11/21 08:34:17;;;;;;;4.75;1.50;;;9.40;95.00;;;;;;2064710;28;20058;-92
2021/11/21 08:35:19;;;;;;;2.00;1.00;;;9.40;95.00;;;;;;2054628;28;20115;-92
2021/11/21 08:36:20;;;;;;;4.32;1.20;;;9.40;94.90;;;;;;2055665;28;20090;-93
2021/11/21 08:37:21;;;;;;;4.95;1.45;;;9.50;94.90;;;;;;2059897;28;20082;-92
2021/11/21 08:38:23;;;;;;;2.45;0.90;;;9.40;94.90;;;;;;2077480;28;20038;-92
2021/11/21 08:39:23;;;;;;;3.60;1.13;;;9.40;94.90;;;;;;2063593;28;20053;-92
2021/11/21 08:40:29;;;;;;;4.28;1.10;;;9.50;94.90;;;;;;2058683;28;20118;-92
2021/11/21 08:41:29;;;;;;;3.65;1.00;;;9.40;94.90;;;;;;2052230;28;20272;-92
2021/11/21 08:42:30;;;;;;;4.00;1.30;;;9.50;94.90;;;;;;2057592;28;20034;-92
2021/11/21 08:43:32;;;;;;;2.65;0.98;;;9.50;94.90;;;;;;2057409;28;20043;-92
2021/11/21 08:44:35;;;;;;;4.47;1.45;;;9.50;94.90;;;;;;2041428;29;20039;-92
2021/11/21 08:45:35;;;;;;;2.55;0.90;;;9.50;94.90;;;;;;2051865;28;20050;-92
2021/11/21 08:46:37;;;;;;;4.05;1.00;;;9.50;94.80;;;;;;2062964;28;20039;-92
2021/11/21 08:47:40;;;;;;;2.40;0.80;;;9.50;94.80;;;;;;2049926;29;20054;-92
2021/11/21 08:48:41;;;;;;;2.58;0.85;;;9.50;94.80;;;;;;2051391;28;20050;-92
2021/11/21 08:49:44;;;;;;;2.83;0.88;;;9.50;94.80;;;;;;2072009;28;20133;-92
2021/11/21 08:50:45;;;;;;;3.67;0.88;;;9.50;94.80;;;;;;2049843;28;20036;-92
2021/11/21 08:51:48;;;;;;;2.95;0.80;;;9.50;94.80;;;;;;2055029;28;20042;-92
2021/11/21 08:52:49;;;;;;;3.30;0.90;;;9.50;94.80;;;;;;2054751;28;20039;-92
2021/11/21 08:53:52;;;;;;;2.50;0.80;;;9.50;94.80;;;;;;2058361;28;20043;-92
2021/11/21 08:54:54;;;;;;;4.03;0.90;;;9.50;94.80;;;;;;2043160;29;20129;-91
2021/11/21 08:56:11;;;;;;;3.15;0.80;;;9.60;94.80;;;;;;2041867;28;20587;-91
2021/11/21 08:57:21;;;;;;;2.55;0.65;;;9.50;94.70;;;;;;2056091;28;20520;-92
2021/11/21 08:58:23;;;;;;;2.80;0.85;;;9.50;94.70;;;;;;2066594;28;20035;-92
2021/11/21 08:59:24;;;;;;;3.15;0.90;;;9.50;94.70;;;;;;2052969;28;20059;-92
2021/11/21 09:00:25;;;;;;;2.90;0.68;;;9.50;94.70;;;;;;2049672;28;20577;-91
2021/11/21 09:01:25;;;;;;;3.53;1.20;;;9.50;94.70;;;;;;2050694;29;20047;-91
2021/11/21 09:02:26;;;;;;;4.47;1.27;;;9.60;94.70;;;;;;2042704;28;20050;-91
2021/11/21 09:03:30;;;;;;;1.77;0.60;;;9.60;94.70;;;;;;2050328;29;22614;-92
2021/11/21 09:04:31;;;;;;;4.88;0.98;;;9.50;94.70;;;;;;2044827;28;20047;-91
2021/11/21 09:05:32;;;;;;;4.93;0.80;;;9.50;94.60;;;;;;2043767;28;20051;-91
2021/11/21 09:06:33;;;;;;;1.73;0.65;;;9.60;94.70;;;;;;2058420;28;20066;-92
2021/11/21 09:07:36;;;;;;;3.47;0.80;;;9.60;94.70;;;;;;2059645;28;20070;-91
2021/11/21 09:08:43;;;;;;;2.28;0.70;;;9.60;94.70;;;;;;2061085;28;20034;-91
2021/11/21 09:09:44;;;;;;;2.95;0.60;;;9.50;94.60;;;;;;2069062;28;20035;-91
2021/11/21 09:10:46;;;;;;;1.40;0.70;;;9.60;94.70;;;;;;2067000;28;20027;-92
2021/11/21 09:11:47;;;;;;;3.47;0.63;;;9.60;94.60;;;;;;2059512;28;20501;-91
2021/11/21 09:12:48;;;;;;;3.33;0.77;;;9.60;94.60;;;;;;2051407;28;20035;-91
2021/11/21 09:13:58;;;;;;;3.05;0.77;;;9.60;94.60;;;;;;2065907;28;20046;-92